Fecha, hora, temperatura, viento dirección y velocidad, humedad y presión.

  • 17-07-2019 00:00:00 | 18.80°C | Este |6.00 km/h | 86.00% | 1003.40 hPa
  • 16-07-2019 23:00:00 | 18.80°C | Este |6.00 km/h | 85.00% | 1003.40 hPa
  • 16-07-2019 22:00:00 | 19.10°C | Este |5.00 km/h | 83.00% | 1003.10 hPa
  • 16-07-2019 21:00:00 | 19.50°C | Este |8.00 km/h | 81.00% | 1003.10 hPa
  • 16-07-2019 20:00:00 | 20.00°C | Este |11.00 km/h | 79.00% | 1003.00 hPa
  • 16-07-2019 19:00:00 | 20.20°C | Nordeste |13.00 km/h | 78.00% | 1003.10 hPa
  • 16-07-2019 18:00:00 | 20.40°C | Nordeste |14.00 km/h | 77.00% | 1003.10 hPa
  • 16-07-2019 17:00:00 | 20.90°C | Nordeste |16.00 km/h | 75.00% | 1003.10 hPa
  • 16-07-2019 16:00:00 | 20.70°C | Calma |0.00 km/h | 77.00% | 1003.50 hPa
  • 16-07-2019 15:00:00 | 20.30°C | Nordeste |14.00 km/h | 78.00% | 1003.50 hPa
  • 16-07-2019 14:00:00 | 20.60°C | Este |13.00 km/h | 78.00% | 1003.70 hPa
  • 16-07-2019 13:00:00 | 21.60°C | Este |15.00 km/h | 73.00% | 1003.70 hPa
  • 16-07-2019 12:00:00 | 20.80°C | Norte |9.00 km/h | 79.00% | 1003.70 hPa
  • 16-07-2019 11:00:00 | 20.30°C | Norte |9.00 km/h | 84.00% | 1003.80 hPa
  • 16-07-2019 10:00:00 | 20.10°C | Nordeste |6.00 km/h | 85.00% | 1003.70 hPa
  • 16-07-2019 09:00:00 | 19.20°C | Nordeste |3.00 km/h | 88.00% | 1003.50 hPa
  • 16-07-2019 08:00:00 | 15.40°C | Sur |5.00 km/h | 94.00% | 1003.20 hPa
  • 16-07-2019 07:00:00 | 13.90°C | Sur |8.00 km/h | 95.00% | 1003.10 hPa
  • 16-07-2019 06:00:00 | 0.00°C | 0 |0.00 km/h | 0.00% | 1002.90 hPa
  • 16-07-2019 05:00:00 | 0.00°C | 0 |0.00 km/h | 0.00% | 1002.80 hPa
  • 16-07-2019 04:00:00 | 15.30°C | Sudeste |9.00 km/h | 97.00% | 1003.10 hPa
  • 16-07-2019 02:00:00 | 16.50°C | Sudeste |10.00 km/h | 94.00% | 1003.60 hPa
  • 16-07-2019 01:00:00 | 18.00°C | Este |11.00 km/h | 90.00% | 1003.90 hPa
  • 16-07-2019 00:00:00 | 19.30°C | Este |18.00 km/h | 86.00% | 1003.50 hPa
    • diseño web asturias Información sobre el estado de las mareas, altura de la marejada, temperatura del agua y otros datos de Gijón en Asturias.

      Surf Gijón